createdAt,value
2022-09-18T00:10:30.000Z,1.0
2022-09-18T00:40:33.163Z,1
2022-09-18T01:10:35.000Z,0.0
2022-09-18T01:40:39.000Z,0.0
2022-09-18T02:10:41.000Z,0.0
2022-09-18T02:40:42.704Z,1
2022-09-18T03:10:48.898Z,0
2022-09-18T03:40:51.000Z,0.0
2022-09-18T04:10:52.000Z,0.0
2022-09-18T04:40:56.000Z,0.0
2022-09-18T05:10:59.467Z,1
2022-09-18T05:41:03.553Z,12
2022-09-18T06:11:06.000Z,43.0
2022-09-18T06:41:06.555Z,67
2022-09-18T07:11:10.644Z,244
2022-09-18T07:41:13.687Z,87
2022-09-18T08:11:24.558Z,90
2022-09-18T08:41:26.692Z,146
2022-09-18T09:11:27.000Z,145.0
2022-09-18T09:41:30.701Z,93
2022-09-18T10:11:34.000Z,132.0
2022-09-18T10:41:36.236Z,337
2022-09-18T11:11:40.071Z,248
2022-09-18T11:41:44.293Z,325
2022-09-18T12:11:47.000Z,141.0
2022-09-18T12:41:53.134Z,152
2022-09-18T13:11:55.249Z,234
2022-09-18T13:41:56.234Z,172
2022-09-18T14:11:58.217Z,176
2022-09-18T14:42:00.437Z,138
2022-09-18T15:12:09.000Z,113.0
2022-09-18T15:42:10.000Z,68.0
2022-09-18T16:12:11.000Z,47.0
2022-09-18T16:42:16.000Z,21.0
2022-09-18T17:12:18.679Z,6
2022-09-18T17:42:22.496Z,0
2022-09-18T18:12:26.000Z,1.0
2022-09-18T18:42:27.000Z,1.0
2022-09-18T19:12:32.000Z,0.0
2022-09-18T19:42:38.000Z,0.0
2022-09-18T20:12:47.000Z,0.0
2022-09-18T20:42:50.000Z,0.0
2022-09-18T21:12:54.532Z,1
2022-09-18T21:42:57.000Z,1.0
2022-09-18T22:12:58.000Z,0.0
2022-09-18T22:42:58.000Z,0.0
2022-09-18T23:13:03.000Z,1.0
2022-09-18T23:43:06.000Z,1.0
